sensor_id;sensor_type;location;lat;lon;timestamp;temperature;humidity
30520;DHT22;17300;50.374;8.006;2024-02-21T00:01:25;13.70;51.10
30520;DHT22;17300;50.374;8.006;2024-02-21T00:03:51;13.70;51.10
30520;DHT22;17300;50.374;8.006;2024-02-21T00:06:18;13.60;51.10
30520;DHT22;17300;50.374;8.006;2024-02-21T00:08:46;13.60;51.10
30520;DHT22;17300;50.374;8.006;2024-02-21T00:11:13;13.60;51.10
30520;DHT22;17300;50.374;8.006;2024-02-21T00:13:39;13.60;51.10
30520;DHT22;17300;50.374;8.006;2024-02-21T00:16:06;13.70;51.20
30520;DHT22;17300;50.374;8.006;2024-02-21T00:18:33;13.60;51.10
30520;DHT22;17300;50.374;8.006;2024-02-21T00:20:59;13.60;51.10
30520;DHT22;17300;50.374;8.006;2024-02-21T00:23:27;13.60;51.10
30520;DHT22;17300;50.374;8.006;2024-02-21T00:25:55;13.60;51.10
30520;DHT22;17300;50.374;8.006;2024-02-21T00:28:21;13.50;51.00
30520;DHT22;17300;50.374;8.006;2024-02-21T00:30:48;13.60;51.10
30520;DHT22;17300;50.374;8.006;2024-02-21T00:33:16;13.50;51.00
30520;DHT22;17300;50.374;8.006;2024-02-21T00:35:42;13.50;51.20
30520;DHT22;17300;50.374;8.006;2024-02-21T00:38:09;13.50;51.20
30520;DHT22;17300;50.374;8.006;2024-02-21T00:40:36;13.50;51.30
30520;DHT22;17300;50.374;8.006;2024-02-21T00:43:04;13.50;51.40
30520;DHT22;17300;50.374;8.006;2024-02-21T00:45:31;13.50;51.50
30520;DHT22;17300;50.374;8.006;2024-02-21T00:47:57;13.40;51.40
30520;DHT22;17300;50.374;8.006;2024-02-21T00:50:24;13.50;51.60
30520;DHT22;17300;50.374;8.006;2024-02-21T00:52:51;13.40;51.50
30520;DHT22;17300;50.374;8.006;2024-02-21T00:55:17;13.40;51.60
30520;DHT22;17300;50.374;8.006;2024-02-21T00:57:44;13.40;51.70
30520;DHT22;17300;50.374;8.006;2024-02-21T01:00:13;13.40;51.80
30520;DHT22;17300;50.374;8.006;2024-02-21T01:02:40;13.50;51.90
30520;DHT22;17300;50.374;8.006;2024-02-21T01:05:07;13.40;51.80
30520;DHT22;17300;50.374;8.006;2024-02-21T01:07:34;13.40;51.80
30520;DHT22;17300;50.374;8.006;2024-02-21T01:10:00;13.50;51.90
30520;DHT22;17300;50.374;8.006;2024-02-21T01:12:27;13.50;51.90
30520;DHT22;17300;50.374;8.006;2024-02-21T01:14:54;13.50;52.00
30520;DHT22;17300;50.374;8.006;2024-02-21T01:17:22;13.50;52.00
30520;DHT22;17300;50.374;8.006;2024-02-21T01:19:48;13.50;52.00
30520;DHT22;17300;50.374;8.006;2024-02-21T01:22:15;13.50;51.90
30520;DHT22;17300;50.374;8.006;2024-02-21T01:24:42;13.50;51.80
30520;DHT22;17300;50.374;8.006;2024-02-21T01:27:09;13.50;51.80
30520;DHT22;17300;50.374;8.006;2024-02-21T01:29:35;13.50;51.80
30520;DHT22;17300;50.374;8.006;2024-02-21T01:32:02;13.50;51.80
30520;DHT22;17300;50.374;8.006;2024-02-21T01:34:30;13.50;51.80
30520;DHT22;17300;50.374;8.006;2024-02-21T01:36:57;13.50;51.60
30520;DHT22;17300;50.374;8.006;2024-02-21T01:39:24;13.50;51.50
30520;DHT22;17300;50.374;8.006;2024-02-21T01:41:51;13.60;51.60
30520;DHT22;17300;50.374;8.006;2024-02-21T01:44:17;13.60;51.50
30520;DHT22;17300;50.374;8.006;2024-02-21T01:46:44;13.60;51.40
30520;DHT22;17300;50.374;8.006;2024-02-21T01:49:11;13.60;51.40
30520;DHT22;17300;50.374;8.006;2024-02-21T01:51:39;13.60;51.40
30520;DHT22;17300;50.374;8.006;2024-02-21T01:54:06;13.60;51.40
30520;DHT22;17300;50.374;8.006;2024-02-21T01:56:33;13.60;51.50
30520;DHT22;17300;50.374;8.006;2024-02-21T01:59:00;13.70;51.60
30520;DHT22;17300;50.374;8.006;2024-02-21T02:01:29;13.70;51.70
30520;DHT22;17300;50.374;8.006;2024-02-21T02:03:56;13.70;51.60
30520;DHT22;17300;50.374;8.006;2024-02-21T02:06:24;13.70;51.60
30520;DHT22;17300;50.374;8.006;2024-02-21T02:08:53;13.70;51.70
30520;DHT22;17300;50.374;8.006;2024-02-21T02:11:20;13.70;51.70
30520;DHT22;17300;50.374;8.006;2024-02-21T02:13:46;13.70;51.70
30520;DHT22;17300;50.374;8.006;2024-02-21T02:16:13;13.70;51.80
30520;DHT22;17300;50.374;8.006;2024-02-21T02:18:39;13.70;51.80
30520;DHT22;17300;50.374;8.006;2024-02-21T02:21:15;13.70;51.60
30520;DHT22;17300;50.374;8.006;2024-02-21T02:23:51;13.70;51.50
30520;DHT22;17300;50.374;8.006;2024-02-21T02:26:17;13.80;51.40
30520;DHT22;17300;50.374;8.006;2024-02-21T02:28:44;13.80;51.30
30520;DHT22;17300;50.374;8.006;2024-02-21T02:31:11;13.70;51.20
30520;DHT22;17300;50.374;8.006;2024-02-21T02:33:38;13.70;51.20
30520;DHT22;17300;50.374;8.006;2024-02-21T02:36:05;13.80;51.30
30520;DHT22;17300;50.374;8.006;2024-02-21T02:38:32;13.70;51.20
30520;DHT22;17300;50.374;8.006;2024-02-21T02:41:00;13.70;51.20
30520;DHT22;17300;50.374;8.006;2024-02-21T02:43:26;13.70;51.20
30520;DHT22;17300;50.374;8.006;2024-02-21T02:45:53;13.70;51.20
30520;DHT22;17300;50.374;8.006;2024-02-21T02:48:21;13.70;51.10
30520;DHT22;17300;50.374;8.006;2024-02-21T02:50:47;13.70;51.20
30520;DHT22;17300;50.374;8.006;2024-02-21T02:53:15;13.70;51.20
30520;DHT22;17300;50.374;8.006;2024-02-21T02:55:41;13.70;51.20
30520;DHT22;17300;50.374;8.006;2024-02-21T02:58:10;13.70;51.20
30520;DHT22;17300;50.374;8.006;2024-02-21T03:00:36;13.70;51.20
30520;DHT22;17300;50.374;8.006;2024-02-21T03:03:04;13.70;51.20
30520;DHT22;17300;50.374;8.006;2024-02-21T03:05:31;13.70;51.10
30520;DHT22;17300;50.374;8.006;2024-02-21T03:07:58;13.70;51.10
30520;DHT22;17300;50.374;8.006;2024-02-21T03:10:25;13.70;51.20
30520;DHT22;17300;50.374;8.006;2024-02-21T03:12:51;13.70;51.20
30520;DHT22;17300;50.374;8.006;2024-02-21T03:15:20;13.70;51.20
30520;DHT22;17300;50.374;8.006;2024-02-21T03:17:47;13.70;51.20
30520;DHT22;17300;50.374;8.006;2024-02-21T03:20:13;13.70;51.10
30520;DHT22;17300;50.374;8.006;2024-02-21T03:22:40;13.70;51.10
30520;DHT22;17300;50.374;8.006;2024-02-21T03:25:08;13.70;51.10
30520;DHT22;17300;50.374;8.006;2024-02-21T03:27:35;13.70;51.10
30520;DHT22;17300;50.374;8.006;2024-02-21T03:30:02;13.70;51.10
30520;DHT22;17300;50.374;8.006;2024-02-21T03:32:31;13.60;51.00
30520;DHT22;17300;50.374;8.006;2024-02-21T03:34:57;13.70;51.00
30520;DHT22;17300;50.374;8.006;2024-02-21T03:37:24;13.60;51.00
30520;DHT22;17300;50.374;8.006;2024-02-21T03:39:51;13.60;51.00
30520;DHT22;17300;50.374;8.006;2024-02-21T03:42:17;13.60;51.10
30520;DHT22;17300;50.374;8.006;2024-02-21T03:44:44;13.60;51.00
30520;DHT22;17300;50.374;8.006;2024-02-21T03:47:11;13.60;51.00
30520;DHT22;17300;50.374;8.006;2024-02-21T03:49:39;13.60;51.00
30520;DHT22;17300;50.374;8.006;2024-02-21T03:52:06;13.60;51.00
30520;DHT22;17300;50.374;8.006;2024-02-21T03:54:33;13.60;51.00
30520;DHT22;17300;50.374;8.006;2024-02-21T03:57:00;13.60;51.10
30520;DHT22;17300;50.374;8.006;2024-02-21T03:59:27;13.60;51.10
30520;DHT22;17300;50.374;8.006;2024-02-21T04:01:54;13.60;51.10
30520;DHT22;17300;50.374;8.006;2024-02-21T04:04:21;13.60;51.10
30520;DHT22;17300;50.374;8.006;2024-02-21T04:06:49;13.60;51.10
30520;DHT22;17300;50.374;8.006;2024-02-21T04:09:17;13.60;51.10
30520;DHT22;17300;50.374;8.006;2024-02-21T04:11:43;13.60;51.10
30520;DHT22;17300;50.374;8.006;2024-02-21T04:14:10;13.70;51.10
30520;DHT22;17300;50.374;8.006;2024-02-21T04:16:37;13.70;51.10
30520;DHT22;17300;50.374;8.006;2024-02-21T04:19:04;13.70;51.20
30520;DHT22;17300;50.374;8.006;2024-02-21T04:21:31;13.70;51.10
30520;DHT22;17300;50.374;8.006;2024-02-21T04:23:59;13.70;51.10
30520;DHT22;17300;50.374;8.006;2024-02-21T04:26:27;13.60;51.10
30520;DHT22;17300;50.374;8.006;2024-02-21T04:28:54;13.70;51.10
30520;DHT22;17300;50.374;8.006;2024-02-21T04:31:20;13.60;51.10
30520;DHT22;17300;50.374;8.006;2024-02-21T04:33:47;13.70;51.20
30520;DHT22;17300;50.374;8.006;2024-02-21T04:36:14;13.70;51.20
30520;DHT22;17300;50.374;8.006;2024-02-21T04:38:40;13.70;51.10
30520;DHT22;17300;50.374;8.006;2024-02-21T04:41:08;13.70;51.10
30520;DHT22;17300;50.374;8.006;2024-02-21T04:43:35;13.60;51.10
30520;DHT22;17300;50.374;8.006;2024-02-21T04:46:02;13.70;51.20
30520;DHT22;17300;50.374;8.006;2024-02-21T04:48:28;13.70;51.10
30520;DHT22;17300;50.374;8.006;2024-02-21T04:50:55;13.70;51.10
30520;DHT22;17300;50.374;8.006;2024-02-21T04:53:22;13.70;51.10
30520;DHT22;17300;50.374;8.006;2024-02-21T04:55:48;13.70;51.10
30520;DHT22;17300;50.374;8.006;2024-02-21T04:58:16;13.60;50.90
30520;DHT22;17300;50.374;8.006;2024-02-21T05:00:43;13.70;51.00
30520;DHT22;17300;50.374;8.006;2024-02-21T05:03:10;13.70;50.90
30520;DHT22;17300;50.374;8.006;2024-02-21T05:05:36;13.70;51.00
30520;DHT22;17300;50.374;8.006;2024-02-21T05:08:03;13.70;51.00
30520;DHT22;17300;50.374;8.006;2024-02-21T05:10:30;13.60;50.80
30520;DHT22;17300;50.374;8.006;2024-02-21T05:12:57;13.60;50.90
30520;DHT22;17300;50.374;8.006;2024-02-21T05:15:25;13.60;50.90
30520;DHT22;17300;50.374;8.006;2024-02-21T05:17:52;13.60;50.90
30520;DHT22;17300;50.374;8.006;2024-02-21T05:20:19;13.70;51.00
30520;DHT22;17300;50.374;8.006;2024-02-21T05:22:46;13.60;50.90
30520;DHT22;17300;50.374;8.006;2024-02-21T05:25:12;13.60;50.90
30520;DHT22;17300;50.374;8.006;2024-02-21T05:27:39;13.60;50.80
30520;DHT22;17300;50.374;8.006;2024-02-21T05:30:07;13.60;50.80
30520;DHT22;17300;50.374;8.006;2024-02-21T05:32:35;13.60;50.70
30520;DHT22;17300;50.374;8.006;2024-02-21T05:35:01;13.60;50.60
30520;DHT22;17300;50.374;8.006;2024-02-21T05:37:28;13.60;50.50
30520;DHT22;17300;50.374;8.006;2024-02-21T05:39:55;13.60;50.50
30520;DHT22;17300;50.374;8.006;2024-02-21T05:42:22;13.60;50.50
30520;DHT22;17300;50.374;8.006;2024-02-21T05:44:48;13.60;50.50
30520;DHT22;17300;50.374;8.006;2024-02-21T05:47:15;13.60;50.50
30520;DHT22;17300;50.374;8.006;2024-02-21T05:49:43;13.50;50.40
30520;DHT22;17300;50.374;8.006;2024-02-21T05:52:10;13.50;50.50
30520;DHT22;17300;50.374;8.006;2024-02-21T05:54:38;13.50;50.60
30520;DHT22;17300;50.374;8.006;2024-02-21T05:57:05;13.50;50.60
30520;DHT22;17300;50.374;8.006;2024-02-21T05:59:32;13.50;50.60
30520;DHT22;17300;50.374;8.006;2024-02-21T06:02:00;13.50;50.60
30520;DHT22;17300;50.374;8.006;2024-02-21T06:04:29;13.50;50.60
30520;DHT22;17300;50.374;8.006;2024-02-21T06:06:57;13.50;50.60
30520;DHT22;17300;50.374;8.006;2024-02-21T06:09:23;13.50;50.70
30520;DHT22;17300;50.374;8.006;2024-02-21T06:11:50;13.50;50.70
30520;DHT22;17300;50.374;8.006;2024-02-21T06:14:17;13.50;50.70
30520;DHT22;17300;50.374;8.006;2024-02-21T06:16:44;13.50;50.70
30520;DHT22;17300;50.374;8.006;2024-02-21T06:19:10;13.50;50.70
30520;DHT22;17300;50.374;8.006;2024-02-21T06:21:37;13.50;50.70
30520;DHT22;17300;50.374;8.006;2024-02-21T06:24:05;13.50;50.60
30520;DHT22;17300;50.374;8.006;2024-02-21T06:26:34;13.50;50.60
30520;DHT22;17300;50.374;8.006;2024-02-21T06:29:01;13.50;50.60
30520;DHT22;17300;50.374;8.006;2024-02-21T06:31:28;13.50;50.50
30520;DHT22;17300;50.374;8.006;2024-02-21T06:33:56;13.50;50.40
30520;DHT22;17300;50.374;8.006;2024-02-21T06:36:23;13.50;50.40
30520;DHT22;17300;50.374;8.006;2024-02-21T06:38:50;13.40;50.30
30520;DHT22;17300;50.374;8.006;2024-02-21T06:41:18;13.50;50.30
30520;DHT22;17300;50.374;8.006;2024-02-21T06:43:45;13.40;50.20
30520;DHT22;17300;50.374;8.006;2024-02-21T06:46:12;13.40;50.20
30520;DHT22;17300;50.374;8.006;2024-02-21T06:48:49;13.40;50.20
30520;DHT22;17300;50.374;8.006;2024-02-21T06:51:15;13.30;50.10
30520;DHT22;17300;50.374;8.006;2024-02-21T06:53:42;13.30;50.20
30520;DHT22;17300;50.374;8.006;2024-02-21T06:56:09;13.30;50.20
30520;DHT22;17300;50.374;8.006;2024-02-21T06:58:37;13.30;50.30
30520;DHT22;17300;50.374;8.006;2024-02-21T07:01:04;13.30;50.90
30520;DHT22;17300;50.374;8.006;2024-02-21T07:03:31;13.30;50.30
30520;DHT22;17300;50.374;8.006;2024-02-21T07:05:57;13.30;50.30
30520;DHT22;17300;50.374;8.006;2024-02-21T07:08:24;13.30;50.30
30520;DHT22;17300;50.374;8.006;2024-02-21T07:10:51;13.30;50.30
30520;DHT22;17300;50.374;8.006;2024-02-21T07:13:18;13.30;50.40
30520;DHT22;17300;50.374;8.006;2024-02-21T07:15:48;13.30;50.40
30520;DHT22;17300;50.374;8.006;2024-02-21T07:18:14;13.30;50.50
30520;DHT22;17300;50.374;8.006;2024-02-21T07:20:41;13.40;50.50
30520;DHT22;17300;50.374;8.006;2024-02-21T07:23:08;13.40;50.60
30520;DHT22;17300;50.374;8.006;2024-02-21T07:25:35;13.40;50.60
30520;DHT22;17300;50.374;8.006;2024-02-21T07:28:02;13.40;50.60
30520;DHT22;17300;50.374;8.006;2024-02-21T07:30:29;13.40;50.60
30520;DHT22;17300;50.374;8.006;2024-02-21T07:32:57;13.40;50.60
30520;DHT22;17300;50.374;8.006;2024-02-21T07:35:24;13.50;50.70
30520;DHT22;17300;50.374;8.006;2024-02-21T07:37:51;13.50;50.60
30520;DHT22;17300;50.374;8.006;2024-02-21T07:40:18;13.50;50.60
30520;DHT22;17300;50.374;8.006;2024-02-21T07:42:44;13.50;50.50
30520;DHT22;17300;50.374;8.006;2024-02-21T07:45:11;13.50;50.50
30520;DHT22;17300;50.374;8.006;2024-02-21T07:47:38;13.50;50.50
30520;DHT22;17300;50.374;8.006;2024-02-21T07:50:07;13.50;50.50
30520;DHT22;17300;50.374;8.006;2024-02-21T07:52:34;13.60;50.60
30520;DHT22;17300;50.374;8.006;2024-02-21T07:55:01;13.60;50.60
30520;DHT22;17300;50.374;8.006;2024-02-21T07:57:29;13.60;50.60
30520;DHT22;17300;50.374;8.006;2024-02-21T08:00:03;13.60;50.60
30520;DHT22;17300;50.374;8.006;2024-02-21T08:02:35;13.60;50.60
30520;DHT22;17300;50.374;8.006;2024-02-21T08:05:03;13.70;50.60
30520;DHT22;17300;50.374;8.006;2024-02-21T08:07:31;13.70;50.60
30520;DHT22;17300;50.374;8.006;2024-02-21T08:09:58;13.70;50.50
30520;DHT22;17300;50.374;8.006;2024-02-21T08:12:25;13.70;50.40
30520;DHT22;17300;50.374;8.006;2024-02-21T08:14:52;13.70;50.30
30520;DHT22;17300;50.374;8.006;2024-02-21T08:17:19;13.70;50.20
30520;DHT22;17300;50.374;8.006;2024-02-21T08:19:45;13.70;50.10
30520;DHT22;17300;50.374;8.006;2024-02-21T08:22:14;13.70;50.70
30520;DHT22;17300;50.374;8.006;2024-02-21T08:24:42;13.80;50.10
30520;DHT22;17300;50.374;8.006;2024-02-21T08:27:09;13.80;50.00
30520;DHT22;17300;50.374;8.006;2024-02-21T08:29:36;13.80;50.10
30520;DHT22;17300;50.374;8.006;2024-02-21T08:32:03;13.80;50.10
30520;DHT22;17300;50.374;8.006;2024-02-21T08:34:30;13.80;50.10
30520;DHT22;17300;50.374;8.006;2024-02-21T08:36:59;13.80;50.20
30520;DHT22;17300;50.374;8.006;2024-02-21T08:39:26;13.90;50.50
30520;DHT22;17300;50.374;8.006;2024-02-21T08:41:55;13.90;50.60
30520;DHT22;17300;50.374;8.006;2024-02-21T08:44:22;14.10;50.90
30520;DHT22;17300;50.374;8.006;2024-02-21T08:46:49;14.10;50.70
30520;DHT22;17300;50.374;8.006;2024-02-21T08:49:15;14.20;50.80
30520;DHT22;17300;50.374;8.006;2024-02-21T08:51:42;14.30;50.80
30520;DHT22;17300;50.374;8.006;2024-02-21T08:54:09;14.40;50.80
30520;DHT22;17300;50.374;8.006;2024-02-21T08:56:36;14.50;50.70
30520;DHT22;17300;50.374;8.006;2024-02-21T08:59:04;14.60;50.70
30520;DHT22;17300;50.374;8.006;2024-02-21T09:01:31;14.60;50.30
30520;DHT22;17300;50.374;8.006;2024-02-21T09:03:59;14.70;50.00
30520;DHT22;17300;50.374;8.006;2024-02-21T09:06:26;14.70;49.70
30520;DHT22;17300;50.374;8.006;2024-02-21T09:08:54;14.70;49.70
30520;DHT22;17300;50.374;8.006;2024-02-21T09:11:22;14.70;49.60
30520;DHT22;17300;50.374;8.006;2024-02-21T09:13:49;14.70;49.40
30520;DHT22;17300;50.374;8.006;2024-02-21T09:16:17;14.70;49.40
30520;DHT22;17300;50.374;8.006;2024-02-21T09:18:43;14.70;49.40
30520;DHT22;17300;50.374;8.006;2024-02-21T09:21:10;14.60;49.30
30520;DHT22;17300;50.374;8.006;2024-02-21T09:23:36;14.70;49.40
30520;DHT22;17300;50.374;8.006;2024-02-21T09:26:03;14.70;49.40
30520;DHT22;17300;50.374;8.006;2024-02-21T09:28:30;14.60;49.30
30520;DHT22;17300;50.374;8.006;2024-02-21T09:30:58;14.70;49.30
30520;DHT22;17300;50.374;8.006;2024-02-21T09:33:26;14.70;49.30
30520;DHT22;17300;50.374;8.006;2024-02-21T09:35:53;14.70;49.40
30520;DHT22;17300;50.374;8.006;2024-02-21T09:38:20;14.80;49.60
30520;DHT22;17300;50.374;8.006;2024-02-21T09:40:47;14.80;49.70
30520;DHT22;17300;50.374;8.006;2024-02-21T09:43:17;15.00;50.00
30520;DHT22;17300;50.374;8.006;2024-02-21T09:45:46;15.10;50.00
30520;DHT22;17300;50.374;8.006;2024-02-21T09:48:29;15.20;50.10
30520;DHT22;17300;50.374;8.006;2024-02-21T09:50:57;15.30;49.70
30520;DHT22;17300;50.374;8.006;2024-02-21T09:53:26;15.50;50.10
30520;DHT22;17300;50.374;8.006;2024-02-21T09:55:55;15.60;49.90
30520;DHT22;17300;50.374;8.006;2024-02-21T09:58:23;15.70;49.70
30520;DHT22;17300;50.374;8.006;2024-02-21T10:00:52;15.70;49.50
30520;DHT22;17300;50.374;8.006;2024-02-21T10:03:19;15.80;49.40
30520;DHT22;17300;50.374;8.006;2024-02-21T10:05:49;15.90;49.30
30520;DHT22;17300;50.374;8.006;2024-02-21T10:08:16;16.00;49.30
30520;DHT22;17300;50.374;8.006;2024-02-21T10:10:43;16.20;49.70
30520;DHT22;17300;50.374;8.006;2024-02-21T10:13:23;16.30;49.80
30520;DHT22;17300;50.374;8.006;2024-02-21T10:16:00;16.40;49.10
30520;DHT22;17300;50.374;8.006;2024-02-21T10:18:27;16.50;48.80
30520;DHT22;17300;50.374;8.006;2024-02-21T10:21:04;16.60;48.90
30520;DHT22;17300;50.374;8.006;2024-02-21T10:23:44;16.60;48.40
30520;DHT22;17300;50.374;8.006;2024-02-21T10:26:11;16.70;48.30
30520;DHT22;17300;50.374;8.006;2024-02-21T10:28:38;16.70;48.80
30520;DHT22;17300;50.374;8.006;2024-02-21T10:31:07;16.80;48.60
30520;DHT22;17300;50.374;8.006;2024-02-21T10:33:34;16.80;48.60
30520;DHT22;17300;50.374;8.006;2024-02-21T10:36:09;16.90;48.70
30520;DHT22;17300;50.374;8.006;2024-02-21T10:38:37;16.90;48.20
30520;DHT22;17300;50.374;8.006;2024-02-21T10:41:04;17.00;48.70
30520;DHT22;17300;50.374;8.006;2024-02-21T10:43:37;17.20;48.90
30520;DHT22;17300;50.374;8.006;2024-02-21T10:46:05;17.30;48.90
30520;DHT22;17300;50.374;8.006;2024-02-21T10:48:41;17.40;48.80
30520;DHT22;17300;50.374;8.006;2024-02-21T10:51:16;17.60;48.70
30520;DHT22;17300;50.374;8.006;2024-02-21T10:53:47;17.70;48.50
30520;DHT22;17300;50.374;8.006;2024-02-21T10:56:24;17.80;48.50
30520;DHT22;17300;50.374;8.006;2024-02-21T10:58:53;18.00;48.10
30520;DHT22;17300;50.374;8.006;2024-02-21T11:01:21;18.10;48.50
30520;DHT22;17300;50.374;8.006;2024-02-21T11:03:49;18.30;48.40
30520;DHT22;17300;50.374;8.006;2024-02-21T11:06:19;18.40;48.20
30520;DHT22;17300;50.374;8.006;2024-02-21T11:08:47;18.50;48.20
30520;DHT22;17300;50.374;8.006;2024-02-21T11:11:14;18.60;48.30
30520;DHT22;17300;50.374;8.006;2024-02-21T11:13:44;18.80;48.20
30520;DHT22;17300;50.374;8.006;2024-02-21T11:16:21;18.90;48.10
30520;DHT22;17300;50.374;8.006;2024-02-21T11:18:48;19.00;47.90
30520;DHT22;17300;50.374;8.006;2024-02-21T11:21:15;19.10;47.70
30520;DHT22;17300;50.374;8.006;2024-02-21T11:23:43;19.30;47.50
30520;DHT22;17300;50.374;8.006;2024-02-21T11:26:10;19.30;47.10
30520;DHT22;17300;50.374;8.006;2024-02-21T11:28:44;19.40;46.50
30520;DHT22;17300;50.374;8.006;2024-02-21T11:31:12;19.40;46.10
30520;DHT22;17300;50.374;8.006;2024-02-21T11:33:40;19.30;45.40
30520;DHT22;17300;50.374;8.006;2024-02-21T11:36:08;19.30;45.10
30520;DHT22;17300;50.374;8.006;2024-02-21T11:38:35;19.10;44.60
30520;DHT22;17300;50.374;8.006;2024-02-21T11:41:03;19.00;44.40
30520;DHT22;17300;50.374;8.006;2024-02-21T11:43:34;18.80;44.10
30520;DHT22;17300;50.374;8.006;2024-02-21T11:46:01;18.70;44.20
30520;DHT22;17300;50.374;8.006;2024-02-21T11:48:29;18.60;44.20
30520;DHT22;17300;50.374;8.006;2024-02-21T11:50:55;18.40;44.20
30520;DHT22;17300;50.374;8.006;2024-02-21T11:53:22;18.30;44.20
30520;DHT22;17300;50.374;8.006;2024-02-21T11:55:50;18.20;44.30
30520;DHT22;17300;50.374;8.006;2024-02-21T11:58:18;18.10;44.40
30520;DHT22;17300;50.374;8.006;2024-02-21T12:00:44;18.00;44.50
30520;DHT22;17300;50.374;8.006;2024-02-21T12:03:11;18.00;44.80
30520;DHT22;17300;50.374;8.006;2024-02-21T12:05:38;18.00;44.90
30520;DHT22;17300;50.374;8.006;2024-02-21T12:08:05;18.10;45.10
30520;DHT22;17300;50.374;8.006;2024-02-21T12:10:32;18.10;45.20
30520;DHT22;17300;50.374;8.006;2024-02-21T12:13:06;18.10;45.30
30520;DHT22;17300;50.374;8.006;2024-02-21T12:15:34;18.20;45.10
30520;DHT22;17300;50.374;8.006;2024-02-21T12:18:01;18.30;45.50
30520;DHT22;17300;50.374;8.006;2024-02-21T12:20:28;18.40;45.70
30520;DHT22;17300;50.374;8.006;2024-02-21T12:22:55;18.50;45.90
30520;DHT22;17300;50.374;8.006;2024-02-21T12:25:24;18.70;45.90
30520;DHT22;17300;50.374;8.006;2024-02-21T12:27:52;18.80;45.90
30520;DHT22;17300;50.374;8.006;2024-02-21T12:30:19;18.90;45.90
30520;DHT22;17300;50.374;8.006;2024-02-21T12:33:07;18.90;45.40
30520;DHT22;17300;50.374;8.006;2024-02-21T12:35:34;19.00;45.00
30520;DHT22;17300;50.374;8.006;2024-02-21T12:38:21;19.00;44.70
30520;DHT22;17300;50.374;8.006;2024-02-21T12:41:16;19.00;43.70
30520;DHT22;17300;50.374;8.006;2024-02-21T12:43:43;19.00;43.80
30520;DHT22;17300;50.374;8.006;2024-02-21T12:46:24;18.90;43.70
30520;DHT22;17300;50.374;8.006;2024-02-21T12:49:04;18.80;43.00
30520;DHT22;17300;50.374;8.006;2024-02-21T12:51:31;18.70;43.30
30520;DHT22;17300;50.374;8.006;2024-02-21T12:53:58;18.60;43.10
30520;DHT22;17300;50.374;8.006;2024-02-21T12:56:25;18.50;43.20
30520;DHT22;17300;50.374;8.006;2024-02-21T12:58:52;18.30;43.00
30520;DHT22;17300;50.374;8.006;2024-02-21T13:01:19;18.30;43.00
30520;DHT22;17300;50.374;8.006;2024-02-21T13:03:46;18.10;42.90
30520;DHT22;17300;50.374;8.006;2024-02-21T13:06:14;18.00;42.80
30520;DHT22;17300;50.374;8.006;2024-02-21T13:08:41;18.00;42.80
30520;DHT22;17300;50.374;8.006;2024-02-21T13:11:09;17.90;43.00
30520;DHT22;17300;50.374;8.006;2024-02-21T13:13:36;17.80;43.20
30520;DHT22;17300;50.374;8.006;2024-02-21T13:16:04;17.70;43.10
30520;DHT22;17300;50.374;8.006;2024-02-21T13:18:31;17.60;43.00
30520;DHT22;17300;50.374;8.006;2024-02-21T13:20:58;17.60;43.20
30520;DHT22;17300;50.374;8.006;2024-02-21T13:23:26;17.40;43.20
30520;DHT22;17300;50.374;8.006;2024-02-21T13:25:52;17.40;43.30
30520;DHT22;17300;50.374;8.006;2024-02-21T13:28:19;17.30;43.40
30520;DHT22;17300;50.374;8.006;2024-02-21T13:30:46;17.20;43.60
30520;DHT22;17300;50.374;8.006;2024-02-21T13:33:13;17.20;43.90
30520;DHT22;17300;50.374;8.006;2024-02-21T13:35:40;17.20;44.10
30520;DHT22;17300;50.374;8.006;2024-02-21T13:38:07;17.30;44.40
30520;DHT22;17300;50.374;8.006;2024-02-21T13:40:36;17.30;44.40
30520;DHT22;17300;50.374;8.006;2024-02-21T13:43:03;17.30;44.40
30520;DHT22;17300;50.374;8.006;2024-02-21T13:45:30;17.40;44.50
30520;DHT22;17300;50.374;8.006;2024-02-21T13:47:57;17.40;44.50
30520;DHT22;17300;50.374;8.006;2024-02-21T13:50:29;17.40;44.50
30520;DHT22;17300;50.374;8.006;2024-02-21T13:52:56;17.50;44.40
30520;DHT22;17300;50.374;8.006;2024-02-21T13:55:23;17.50;44.20
30520;DHT22;17300;50.374;8.006;2024-02-21T13:57:52;17.40;43.90
30520;DHT22;17300;50.374;8.006;2024-02-21T14:00:19;17.40;43.80
30520;DHT22;17300;50.374;8.006;2024-02-21T14:02:46;17.40;43.70
30520;DHT22;17300;50.374;8.006;2024-02-21T14:05:13;17.30;43.70
30520;DHT22;17300;50.374;8.006;2024-02-21T14:07:40;17.30;43.80
30520;DHT22;17300;50.374;8.006;2024-02-21T14:10:08;17.20;43.90
30520;DHT22;17300;50.374;8.006;2024-02-21T14:12:35;17.20;43.90
30520;DHT22;17300;50.374;8.006;2024-02-21T14:15:05;17.10;43.90
30520;DHT22;17300;50.374;8.006;2024-02-21T14:17:31;17.10;43.90
30520;DHT22;17300;50.374;8.006;2024-02-21T14:19:58;17.00;43.80
30520;DHT22;17300;50.374;8.006;2024-02-21T14:22:25;17.00;43.90
30520;DHT22;17300;50.374;8.006;2024-02-21T14:24:51;17.00;43.90
30520;DHT22;17300;50.374;8.006;2024-02-21T14:27:18;16.90;44.00
30520;DHT22;17300;50.374;8.006;2024-02-21T14:29:45;16.90;44.20
30520;DHT22;17300;50.374;8.006;2024-02-21T14:32:13;16.90;44.20
30520;DHT22;17300;50.374;8.006;2024-02-21T14:34:40;16.90;44.10
30520;DHT22;17300;50.374;8.006;2024-02-21T14:37:07;16.80;44.00
30520;DHT22;17300;50.374;8.006;2024-02-21T14:39:33;16.80;44.10
30520;DHT22;17300;50.374;8.006;2024-02-21T14:42:01;16.80;44.10
30520;DHT22;17300;50.374;8.006;2024-02-21T14:44:28;16.80;44.00
30520;DHT22;17300;50.374;8.006;2024-02-21T14:46:54;16.70;43.90
30520;DHT22;17300;50.374;8.006;2024-02-21T14:49:22;16.70;44.00
30520;DHT22;17300;50.374;8.006;2024-02-21T14:51:50;16.70;44.10
30520;DHT22;17300;50.374;8.006;2024-02-21T14:54:17;16.70;44.80
30520;DHT22;17300;50.374;8.006;2024-02-21T14:56:45;16.60;44.10
30520;DHT22;17300;50.374;8.006;2024-02-21T14:59:12;16.60;44.10
30520;DHT22;17300;50.374;8.006;2024-02-21T15:01:40;16.60;44.10
30520;DHT22;17300;50.374;8.006;2024-02-21T15:04:10;16.60;44.10
30520;DHT22;17300;50.374;8.006;2024-02-21T15:06:38;16.60;44.10
30520;DHT22;17300;50.374;8.006;2024-02-21T15:09:05;16.50;44.10
30520;DHT22;17300;50.374;8.006;2024-02-21T15:11:32;16.50;44.00
30520;DHT22;17300;50.374;8.006;2024-02-21T15:13:59;16.50;44.00
30520;DHT22;17300;50.374;8.006;2024-02-21T15:16:26;16.50;44.00
30520;DHT22;17300;50.374;8.006;2024-02-21T15:18:53;16.50;44.00
30520;DHT22;17300;50.374;8.006;2024-02-21T15:21:20;16.40;43.90
30520;DHT22;17300;50.374;8.006;2024-02-21T15:23:48;16.40;44.00
30520;DHT22;17300;50.374;8.006;2024-02-21T15:26:14;16.40;44.10
30520;DHT22;17300;50.374;8.006;2024-02-21T15:28:42;16.40;44.90
30520;DHT22;17300;50.374;8.006;2024-02-21T15:31:19;16.30;44.30
30520;DHT22;17300;50.374;8.006;2024-02-21T15:33:47;16.30;44.30